Terminal Aerodrome Forecast
Issued by NWS

Home | Current Version | Previous Version | Text Only | Print | Product List | Glossary On
Versions: 1 2 3 4 5 6 7 8 9 10 11 12 13 14
149
FTUS44 KTSA 250520
TAFMLC
TAF
KMLC 250520Z 2506/2606 14004KT P6SM BKN120
     FM251200 18005KT P6SM BKN100
     FM251800 33008G15KT P6SM OVC250
      TEMPO 2518/2522 6SM -TSRA BKN025CB
     FM260200 36009KT P6SM OVC040=

USA.gov is the U.S. government's official web portal to all federal, state and local government web resources and services.